Time;durP1;ratioP1;P1;durP2;ratioP2;P2;SDS_P1;SDS_P2;PMS_P1;PMS_P2;Temp;Humidity;BMP_temperature;BMP_pressure;BME280_temperature;BME280_humidity;BME280_pressure;Samples;Min_cycle;Max_cycle;Signal;HPM_P1;HPM_P2
2023/02/12 00:01:15;;;;;;;22.27;14.93;;;5.60;78.00;;;;;;4951601;28;20219;-90
2023/02/12 00:03:45;;;;;;;23.90;15.60;;;5.50;80.80;;;;;;4968594;28;20231;-90
2023/02/12 00:06:13;;;;;;;20.53;14.90;;;5.60;81.90;;;;;;4955583;28;20215;-90
2023/02/12 00:08:40;;;;;;;19.70;14.70;;;5.60;81.70;;;;;;4969543;28;20728;-90
2023/02/12 00:11:09;;;;;;;21.90;15.17;;;5.70;83.10;;;;;;4970176;28;20205;-89
2023/02/12 00:13:36;;;;;;;22.80;15.13;;;5.80;82.40;;;;;;4972344;28;20207;-90
2023/02/12 00:16:05;;;;;;;20.10;14.83;;;5.90;83.60;;;;;;4968924;28;20562;-90
2023/02/12 00:18:32;;;;;;;24.27;15.43;;;5.90;83.00;;;;;;4971949;28;20567;-90
2023/02/12 00:21:02;;;;;;;22.50;15.30;;;5.80;84.00;;;;;;4970610;28;20200;-90
2023/02/12 00:23:30;;;;;;;22.67;15.07;;;5.80;85.20;;;;;;4952503;28;20223;-90
2023/02/12 00:25:56;;;;;;;23.33;16.37;;;5.70;86.10;;;;;;4972173;28;20208;-90
2023/02/12 00:28:23;;;;;;;23.53;16.03;;;5.70;85.30;;;;;;4970464;28;20201;-90
2023/02/12 00:30:50;;;;;;;26.03;16.77;;;5.70;85.90;;;;;;4970993;28;20200;-90
2023/02/12 00:33:17;;;;;;;25.57;15.77;;;5.50;87.70;;;;;;4973553;28;20214;-90
2023/02/12 00:35:44;;;;;;;23.53;16.17;;;5.50;89.30;;;;;;4971598;28;20220;-90
2023/02/12 00:38:13;;;;;;;23.57;15.60;;;5.50;89.30;;;;;;4955030;28;20231;-90
2023/02/12 00:40:40;;;;;;;26.40;15.70;;;5.40;89.20;;;;;;4972312;28;20240;-90
2023/02/12 00:43:07;;;;;;;23.20;15.70;;;5.50;89.30;;;;;;4970589;28;20280;-90
2023/02/12 00:45:34;;;;;;;24.33;16.57;;;5.50;89.30;;;;;;4971497;28;20295;-89
2023/02/12 00:48:00;;;;;;;28.47;15.47;;;5.50;89.30;;;;;;4955461;28;20229;-88
2023/02/12 00:50:27;;;;;;;22.87;15.47;;;5.70;89.40;;;;;;4970774;28;20664;-89
2023/02/12 00:52:55;;;;;;;25.50;16.00;;;5.70;89.20;;;;;;4970024;28;20479;-89
2023/02/12 00:55:23;;;;;;;21.63;15.30;;;5.80;88.90;;;;;;4973480;28;20266;-89
2023/02/12 00:57:50;;;;;;;26.27;16.67;;;5.70;88.00;;;;;;4960814;28;20228;-90
2023/02/12 01:00:17;;;;;;;27.00;15.33;;;5.60;89.40;;;;;;4995229;28;20259;-90
2023/02/12 01:02:44;;;;;;;26.10;16.30;;;5.50;89.30;;;;;;4982241;28;20205;-91
2023/02/12 01:05:11;;;;;;;22.40;15.57;;;5.60;89.40;;;;;;4981596;28;20227;-90
2023/02/12 01:07:39;;;;;;;24.93;16.43;;;5.70;88.10;;;;;;4973710;28;20207;-90
2023/02/12 01:10:08;;;;;;;25.03;15.67;;;5.60;89.00;;;;;;4973106;28;20211;-89
2023/02/12 01:12:36;;;;;;;20.80;15.23;;;5.70;87.90;;;;;;4955663;28;20200;-90
2023/02/12 01:15:04;;;;;;;22.97;14.60;;;5.70;88.90;;;;;;4971781;28;20200;-89
2023/02/12 01:17:31;;;;;;;22.23;15.63;;;5.70;87.80;;;;;;4972178;28;20553;-89
2023/02/12 01:19:58;;;;;;;23.07;14.90;;;5.90;86.10;;;;;;4973473;28;20809;-89
2023/02/12 01:22:26;;;;;;;24.08;15.88;;;6.00;84.90;;;;;;4950410;28;20200;-90
2023/02/12 01:24:52;;;;;;;24.87;16.33;;;6.10;83.70;;;;;;4973113;28;20311;-90
2023/02/12 01:27:19;;;;;;;22.80;17.07;;;6.10;84.30;;;;;;4969945;28;20207;-90
2023/02/12 01:29:49;;;;;;;25.13;17.03;;;5.90;83.90;;;;;;4968506;28;20600;-90
2023/02/12 01:32:16;;;;;;;25.53;17.10;;;5.70;85.60;;;;;;4967665;28;20219;-90
2023/02/12 01:34:42;;;;;;;26.03;16.50;;;5.70;87.70;;;;;;4971244;28;20558;-90
2023/02/12 01:37:09;;;;;;;22.40;15.67;;;5.70;87.50;;;;;;4971508;28;20586;-89
2023/02/12 01:39:36;;;;;;;22.90;16.30;;;5.70;86.00;;;;;;4972350;28;20208;-90
2023/02/12 01:42:04;;;;;;;27.93;17.33;;;5.70;85.90;;;;;;4938801;28;20204;-90
2023/02/12 01:44:33;;;;;;;26.57;18.07;;;5.50;87.20;;;;;;4969060;28;20197;-90
2023/02/12 01:47:04;;;;;;;28.47;17.57;;;5.50;87.90;;;;;;4949105;28;20219;-89
2023/02/12 01:49:34;;;;;;;24.30;16.70;;;5.40;89.20;;;;;;4970097;28;20208;-90
2023/02/12 01:52:05;;;;;;;23.63;16.20;;;5.50;89.30;;;;;;4966411;28;20201;-90
2023/02/12 01:54:35;;;;;;;24.90;17.03;;;5.40;89.20;;;;;;4969089;28;20695;-90
2023/02/12 01:57:04;;;;;;;26.43;17.60;;;5.50;89.30;;;;;;4972955;28;20239;-89
2023/02/12 01:59:32;;;;;;;25.50;17.13;;;5.40;89.20;;;;;;4971101;28;20236;-90
2023/02/12 02:01:59;;;;;;;28.23;17.50;;;5.30;89.10;;;;;;4968768;28;20206;-89
2023/02/12 02:04:30;;;;;;;23.60;16.77;;;5.60;89.40;;;;;;4968062;28;20204;-89
2023/02/12 02:07:00;;;;;;;23.23;16.50;;;5.60;89.40;;;;;;4970477;28;20207;-90
2023/02/12 02:09:28;;;;;;;27.27;16.40;;;5.60;88.30;;;;;;4972343;28;20584;-90
2023/02/12 02:14:40;;;;;;;23.27;15.57;;;5.70;84.10;;;;;;4967884;28;20239;-90
2023/02/12 02:17:23;;;;;;;27.77;16.37;;;5.70;83.80;;;;;;4971566;28;20240;-90
2023/02/12 02:20:21;;;;;;;24.67;16.13;;;5.40;83.30;;;;;;4951661;28;20220;-90
2023/02/12 02:22:54;;;;;;;26.23;15.00;;;5.50;85.00;;;;;;4972214;28;20209;-90
2023/02/12 02:25:46;;;;;;;25.13;14.50;;;5.50;81.60;;;;;;4969490;28;20205;-90
2023/02/12 02:28:28;;;;;;;22.53;14.60;;;5.30;82.10;;;;;;4970076;28;20541;-90
2023/02/12 02:31:00;;;;;;;21.23;14.27;;;5.30;82.80;;;;;;4976003;28;20204;-90
2023/02/12 02:33:37;;;;;;;18.17;12.77;;;5.40;80.80;;;;;;4952572;28;20235;-91
2023/02/12 02:36:16;;;;;;;22.07;14.53;;;5.50;80.80;;;;;;4970260;28;20598;-90
2023/02/12 02:38:50;;;;;;;20.57;13.63;;;5.40;79.50;;;;;;4952615;28;20662;-90
2023/02/12 02:41:22;;;;;;;23.20;13.73;;;5.30;80.20;;;;;;4973294;28;20835;-90
2023/02/12 02:43:51;;;;;;;20.03;13.97;;;5.20;80.80;;;;;;4966604;28;20256;-87
2023/02/12 02:46:26;;;;;;;21.77;14.03;;;5.10;79.50;;;;;;4978027;28;20675;-90
2023/02/12 02:48:58;;;;;;;22.43;13.87;;;5.20;81.30;;;;;;4975336;28;20193;-90
2023/02/12 02:51:30;;;;;;;20.60;13.87;;;5.20;80.00;;;;;;4972080;28;20744;-89
2023/02/12 02:54:03;;;;;;;21.13;13.83;;;5.00;79.50;;;;;;4971451;28;20197;-90
2023/02/12 02:56:32;;;;;;;21.23;14.37;;;5.20;81.60;;;;;;4976033;28;20213;-90
2023/02/12 02:59:03;;;;;;;22.07;13.80;;;5.10;78.80;;;;;;4971740;28;20590;-88
2023/02/12 03:01:36;;;;;;;20.77;13.83;;;4.90;80.50;;;;;;4972167;28;20192;-90
2023/02/12 03:04:06;;;;;;;20.87;13.67;;;4.80;80.40;;;;;;4970283;28;20241;-89
2023/02/12 03:06:44;;;;;;;21.17;14.37;;;4.70;80.90;;;;;;4973186;28;20653;-87
2023/02/12 03:09:16;;;;;;;20.60;13.60;;;4.60;81.80;;;;;;4971973;28;20220;-90
2023/02/12 03:11:43;;;;;;;20.90;14.50;;;4.50;82.90;;;;;;4973401;28;20204;-89
2023/02/12 03:14:15;;;;;;;20.40;13.27;;;4.50;83.70;;;;;;4972860;28;20200;-89
2023/02/12 03:16:48;;;;;;;20.77;14.70;;;4.40;83.80;;;;;;4966005;28;20577;-90
2023/02/12 03:19:19;;;;;;;20.23;13.80;;;4.50;83.90;;;;;;4970254;28;20220;-90
2023/02/12 03:21:50;;;;;;;19.23;13.57;;;4.50;83.80;;;;;;4973885;28;20204;-90
2023/02/12 03:24:22;;;;;;;19.00;14.53;;;4.50;83.60;;;;;;4969629;28;20455;-89
2023/02/12 03:26:54;;;;;;;21.63;14.10;;;4.50;84.10;;;;;;4972288;28;20205;-89
2023/02/12 03:29:21;;;;;;;22.03;13.93;;;4.60;83.60;;;;;;4973777;28;20209;-90
2023/02/12 03:32:08;;;;;;;19.47;13.90;;;4.60;83.90;;;;;;4976343;28;20572;-90
2023/02/12 03:34:46;;;;;;;18.30;13.77;;;4.70;83.70;;;;;;4970537;28;20231;-89
2023/02/12 03:37:18;;;;;;;20.43;14.37;;;4.70;83.60;;;;;;4974533;28;20235;-90
2023/02/12 03:39:53;;;;;;;20.73;14.23;;;4.70;84.20;;;;;;4968993;28;20201;-90
2023/02/12 03:42:30;;;;;;;22.70;14.60;;;4.70;83.60;;;;;;4956039;28;20203;-90
2023/02/12 03:45:02;;;;;;;23.57;14.33;;;4.70;83.50;;;;;;4948648;28;20491;-90
2023/02/12 03:47:40;;;;;;;24.20;15.27;;;4.70;83.60;;;;;;4965994;28;20197;-90
2023/02/12 03:50:12;;;;;;;21.53;14.93;;;4.60;84.30;;;;;;4971624;28;20211;-90
2023/02/12 03:52:40;;;;;;;23.37;15.13;;;4.60;85.40;;;;;;4969661;28;20197;-90
2023/02/12 03:55:08;;;;;;;21.73;14.87;;;4.60;86.20;;;;;;4970820;28;20213;-90
2023/02/12 03:57:41;;;;;;;23.67;15.10;;;4.50;86.90;;;;;;4971499;28;20291;-89
2023/02/12 04:00:11;;;;;;;22.77;15.33;;;4.60;86.50;;;;;;4971496;28;20218;-89
2023/02/12 04:02:40;;;;;;;19.37;13.90;;;4.60;85.70;;;;;;4970770;28;20691;-89
2023/02/12 04:05:09;;;;;;;21.50;15.03;;;4.70;85.10;;;;;;4964764;28;20211;-89
2023/02/12 04:07:36;;;;;;;21.23;14.80;;;4.80;84.90;;;;;;4967261;28;20204;-90
2023/02/12 04:10:04;;;;;;;23.83;15.30;;;4.80;85.20;;;;;;4973713;28;20573;-89
2023/02/12 04:12:36;;;;;;;22.87;14.87;;;4.80;84.90;;;;;;4971615;28;20595;-89
2023/02/12 04:15:18;;;;;;;22.17;14.83;;;4.80;85.90;;;;;;4971253;28;20212;-89
2023/02/12 04:17:52;;;;;;;23.67;14.93;;;4.70;87.20;;;;;;4962979;28;20224;-89
2023/02/12 04:20:26;;;;;;;22.20;15.30;;;4.80;85.60;;;;;;4967326;28;20237;-89
2023/02/12 04:23:02;;;;;;;21.70;14.87;;;4.80;84.60;;;;;;4968434;28;20211;-89
2023/02/12 04:25:42;;;;;;;22.60;15.37;;;4.70;86.10;;;;;;4970029;28;20205;-89
2023/02/12 04:28:19;;;;;;;21.83;15.53;;;4.60;86.70;;;;;;4964102;28;20307;-89
2023/02/12 04:30:54;;;;;;;20.37;14.33;;;4.70;86.80;;;;;;4966552;28;20591;-89
2023/02/12 04:33:25;;;;;;;23.73;16.07;;;4.70;86.60;;;;;;4966296;28;20208;-89
2023/02/12 04:35:59;;;;;;;22.47;14.97;;;4.80;85.90;;;;;;4969420;28;20219;-89
2023/02/12 04:38:31;;;;;;;23.13;15.53;;;4.70;86.70;;;;;;4964977;28;20205;-90
2023/02/12 04:40:58;;;;;;;20.67;14.10;;;4.70;87.20;;;;;;4971540;28;20220;-89
2023/02/12 04:43:29;;;;;;;20.87;13.93;;;4.70;87.00;;;;;;4969985;28;20211;-89
2023/02/12 04:45:56;;;;;;;21.57;14.63;;;4.80;87.60;;;;;;4974582;28;20212;-89
2023/02/12 04:48:24;;;;;;;22.90;14.50;;;4.80;87.30;;;;;;4968056;28;20204;-89
2023/02/12 04:50:51;;;;;;;20.70;14.03;;;4.80;86.00;;;;;;4969536;28;20204;-89
2023/02/12 04:53:19;;;;;;;21.00;13.53;;;4.60;86.00;;;;;;4965468;28;20216;-89
2023/02/12 04:55:46;;;;;;;19.73;14.07;;;4.60;85.70;;;;;;4967437;28;20219;-90
2023/02/12 04:58:13;;;;;;;22.20;13.97;;;4.50;85.90;;;;;;4961999;28;20232;-89
2023/02/12 05:00:40;;;;;;;19.70;13.80;;;4.40;87.00;;;;;;4969324;28;20207;-90
2023/02/12 05:03:07;;;;;;;23.40;14.00;;;4.30;86.90;;;;;;4971272;28;20210;-89
2023/02/12 05:05:36;;;;;;;19.20;12.93;;;4.30;86.60;;;;;;4968514;28;20212;-89
2023/02/12 05:08:03;;;;;;;18.53;13.60;;;4.30;87.70;;;;;;4970201;28;20211;-89
2023/02/12 05:10:29;;;;;;;23.17;14.00;;;4.30;86.80;;;;;;4973957;28;20197;-89
2023/02/12 05:12:56;;;;;;;22.70;14.23;;;4.30;87.30;;;;;;4972326;28;20224;-89
2023/02/12 05:15:23;;;;;;;23.00;13.87;;;4.40;87.40;;;;;;4972698;28;20196;-89
2023/02/12 05:17:50;;;;;;;20.17;13.47;;;4.50;87.10;;;;;;4968862;28;20228;-89
2023/02/12 05:20:17;;;;;;;19.93;13.53;;;4.50;87.30;;;;;;4968953;28;20197;-89
2023/02/12 05:22:45;;;;;;;20.23;13.13;;;4.60;86.80;;;;;;4970309;28;20200;-89
2023/02/12 05:25:12;;;;;;;21.43;14.27;;;4.50;88.40;;;;;;4970431;28;20201;-89
2023/02/12 05:27:39;;;;;;;18.30;13.03;;;4.50;86.80;;;;;;4966207;28;20204;-89
2023/02/12 05:30:08;;;;;;;19.83;13.63;;;4.60;86.50;;;;;;4969372;28;20212;-90
2023/02/12 05:32:35;;;;;;;19.40;13.73;;;4.60;87.50;;;;;;4969904;28;20213;-89
2023/02/12 05:35:02;;;;;;;18.77;13.93;;;4.60;85.60;;;;;;4969790;28;20235;-90
2023/02/12 05:37:30;;;;;;;19.43;14.10;;;4.60;87.20;;;;;;4966256;28;20217;-90
2023/02/12 05:39:58;;;;;;;19.80;13.60;;;4.50;88.70;;;;;;4969251;28;20207;-89
2023/02/12 05:42:25;;;;;;;23.27;14.07;;;4.40;88.60;;;;;;4969687;28;20208;-89
2023/02/12 05:44:52;;;;;;;20.07;13.83;;;4.40;88.60;;;;;;4970859;28;20200;-90
2023/02/12 05:47:19;;;;;;;22.70;14.73;;;4.40;88.60;;;;;;4970654;28;20555;-89
2023/02/12 05:49:45;;;;;;;22.97;14.37;;;4.40;88.60;;;;;;4965822;28;20208;-89
2023/02/12 05:52:12;;;;;;;20.10;13.87;;;4.50;88.70;;;;;;4971554;28;20200;-89
2023/02/12 05:54:39;;;;;;;21.97;14.03;;;4.50;88.70;;;;;;4965513;28;20211;-90
2023/02/12 05:57:08;;;;;;;21.80;14.47;;;4.50;88.70;;;;;;4967541;28;20240;-89
2023/02/12 05:59:35;;;;;;;21.13;14.07;;;4.50;88.10;;;;;;4969588;28;20228;-89
2023/02/12 06:02:02;;;;;;;22.63;14.30;;;4.50;88.70;;;;;;4971878;28;20208;-90
2023/02/12 06:04:29;;;;;;;20.40;14.80;;;4.50;88.70;;;;;;4953699;28;20263;-90
2023/02/12 06:06:56;;;;;;;19.93;13.77;;;4.40;88.60;;;;;;4972222;28;20205;-89
2023/02/12 06:09:23;;;;;;;21.83;14.23;;;4.30;88.60;;;;;;4969413;28;20227;-89
2023/02/12 06:11:50;;;;;;;19.40;14.00;;;4.40;88.60;;;;;;4974335;28;20641;-89
2023/02/12 06:14:20;;;;;;;21.90;14.63;;;4.50;88.70;;;;;;4974587;28;20220;-89
2023/02/12 06:16:48;;;;;;;24.27;15.00;;;4.60;88.70;;;;;;4971482;28;20235;-89
2023/02/12 06:19:14;;;;;;;19.93;14.07;;;4.60;88.70;;;;;;4969923;28;20683;-90
2023/02/12 06:21:41;;;;;;;22.23;14.50;;;4.70;88.80;;;;;;4974257;28;20200;-89
2023/02/12 06:24:09;;;;;;;22.60;13.73;;;4.80;88.90;;;;;;4973473;28;20196;-90
2023/02/12 06:26:36;;;;;;;24.00;14.07;;;4.90;86.30;;;;;;4978553;28;20193;-89
2023/02/12 06:29:03;;;;;;;22.87;14.97;;;4.90;86.10;;;;;;4974268;28;20205;-89
2023/02/12 06:31:34;;;;;;;22.63;13.77;;;4.80;87.50;;;;;;4975319;28;20200;-89
2023/02/12 06:34:04;;;;;;;22.07;14.33;;;4.70;88.80;;;;;;4977401;28;20200;-89
2023/02/12 06:36:31;;;;;;;19.70;14.27;;;4.70;88.80;;;;;;4968256;28;20578;-89
2023/02/12 06:38:58;;;;;;;22.90;13.73;;;4.60;88.70;;;;;;4964763;28;20552;-89
2023/02/12 06:41:24;;;;;;;23.87;14.37;;;4.70;88.80;;;;;;4971320;28;20196;-89
2023/02/12 06:43:51;;;;;;;22.90;14.33;;;4.80;88.90;;;;;;4973387;28;20208;-89
2023/02/12 06:46:18;;;;;;;20.30;13.77;;;4.80;88.90;;;;;;4970196;28;20209;-89
2023/02/12 06:48:47;;;;;;;21.40;14.07;;;4.80;88.90;;;;;;4971013;28;20197;-89
2023/02/12 06:51:17;;;;;;;25.97;16.17;;;4.80;88.90;;;;;;4971055;28;20201;-89
2023/02/12 06:53:44;;;;;;;22.37;15.03;;;4.80;88.90;;;;;;4968977;28;20201;-91
2023/02/12 06:56:12;;;;;;;22.00;14.27;;;4.70;88.80;;;;;;4968213;28;20200;-90
2023/02/12 06:58:41;;;;;;;21.67;14.13;;;4.70;88.80;;;;;;4973060;28;20232;-89
2023/02/12 07:01:13;;;;;;;22.93;14.30;;;4.70;88.80;;;;;;4972958;28;20204;-89
2023/02/12 07:03:40;;;;;;;20.97;13.67;;;4.70;88.80;;;;;;4976164;28;20193;-90
2023/02/12 07:06:10;;;;;;;21.13;13.73;;;4.70;88.30;;;;;;4983226;28;20209;-89
2023/02/12 07:08:37;;;;;;;20.83;14.30;;;4.70;88.10;;;;;;4975218;28;20196;-90
2023/02/12 07:11:04;;;;;;;20.30;14.30;;;4.80;87.40;;;;;;4972416;28;20200;-89
2023/02/12 07:13:33;;;;;;;20.83;13.43;;;4.80;85.80;;;;;;4968932;28;20209;-89
2023/02/12 07:16:04;;;;;;;18.73;13.00;;;5.00;85.20;;;;;;4969084;28;20654;-90
2023/02/12 07:18:31;;;;;;;18.83;13.37;;;5.00;86.40;;;;;;4969851;28;20318;-90
2023/02/12 07:20:58;;;;;;;20.83;14.30;;;5.10;86.00;;;;;;4974052;28;20201;-90
2023/02/12 07:23:26;;;;;;;21.37;14.13;;;5.20;84.30;;;;;;4971504;28;20204;-90
2023/02/12 07:25:57;;;;;;;21.97;14.27;;;5.20;83.80;;;;;;4965853;28;20208;-89
2023/02/12 07:28:24;;;;;;;24.67;14.27;;;5.30;84.80;;;;;;4967263;28;20232;-90
2023/02/12 07:30:51;;;;;;;25.93;15.80;;;5.30;85.00;;;;;;4966600;28;20568;-90
2023/02/12 07:33:19;;;;;;;22.17;14.80;;;5.30;85.80;;;;;;4963064;28;20208;-89
2023/02/12 07:35:46;;;;;;;28.03;16.87;;;5.20;86.40;;;;;;4951597;28;20219;-90
2023/02/12 07:38:13;;;;;;;25.95;16.25;;;5.20;88.30;;;;;;4976753;28;20224;-90
2023/02/12 07:40:42;;;;;;;24.30;16.17;;;5.30;89.10;;;;;;4967261;28;20982;-90
2023/02/12 07:43:09;;;;;;;24.27;16.57;;;5.30;89.10;;;;;;4964194;28;20216;-90
2023/02/12 07:45:36;;;;;;;25.73;17.07;;;5.30;89.20;;;;;;4966305;28;20640;-90
2023/02/12 07:48:03;;;;;;;28.30;18.13;;;5.40;90.10;;;;;;4964085;28;20209;-90
2023/02/12 07:50:30;;;;;;;26.63;16.57;;;5.20;91.10;;;;;;4971899;28;20201;-90
2023/02/12 07:52:57;;;;;;;27.30;17.63;;;5.20;91.30;;;;;;4953489;28;20221;-91
2023/02/12 07:55:24;;;;;;;28.98;18.25;;;5.20;91.30;;;;;;4964273;28;20224;-90
2023/02/12 07:57:53;;;;;;;29.10;18.33;;;5.20;91.60;;;;;;4962067;28;20272;-89
2023/02/12 08:00:21;;;;;;;25.85;17.75;;;5.20;91.60;;;;;;4971559;28;20212;-89
2023/02/12 08:02:53;;;;;;;27.50;17.77;;;5.20;91.80;;;;;;4954206;28;20209;-90
2023/02/12 08:05:20;;;;;;;28.45;18.00;;;5.40;91.70;;;;;;4981215;28;20185;-93
2023/02/12 08:07:49;;;;;;;28.13;17.88;;;5.40;91.30;;;;;;4991101;28;20192;-92
2023/02/12 08:10:21;;;;;;;29.13;18.83;;;5.30;91.80;;;;;;4990941;28;20199;-92
2023/02/12 08:12:47;;;;;;;25.52;17.77;;;5.30;92.20;;;;;;4972830;28;20212;-90
2023/02/12 08:15:16;;;;;;;32.85;19.95;;;5.20;92.80;;;;;;4972335;28;20213;-94
2023/02/12 08:17:43;;;;;;;30.38;19.67;;;5.30;92.60;;;;;;4956924;28;20224;-92
2023/02/12 08:20:11;;;;;;;28.80;19.25;;;5.40;92.30;;;;;;4958553;28;20212;-91
2023/02/12 08:23:30;;;;;;;28.67;18.20;;;5.40;92.30;;;;;;4966830;28;20209;-95
2023/02/12 08:29:49;;;;;;;32.47;19.38;;;5.80;91.40;;;;;;4979151;28;20200;-95
2023/02/12 08:38:13;;;;;;;30.77;19.25;;;5.50;92.50;;;;;;4951125;28;20354;-91
2023/02/12 08:40:42;;;;;;;31.65;19.48;;;5.70;92.40;;;;;;4961290;28;20193;-91
2023/02/12 08:47:21;;;;;;;31.02;18.73;;;5.80;91.80;;;;;;4977607;28;20267;-92
2023/02/12 08:50:30;;;;;;;31.08;19.60;;;5.70;91.80;;;;;;4976435;28;20205;-92
2023/02/12 08:52:59;;;;;;;31.80;19.88;;;5.70;92.20;;;;;;4966092;28;20207;-91
2023/02/12 08:55:49;;;;;;;35.95;19.95;;;5.70;92.50;;;;;;4975296;28;20680;-93
2023/02/12 08:58:17;;;;;;;31.30;19.45;;;5.70;92.50;;;;;;4959384;28;20225;-91
2023/02/12 09:00:44;;;;;;;27.80;19.33;;;5.90;92.20;;;;;;4976277;28;20679;-89
2023/02/12 09:03:11;;;;;;;31.90;19.52;;;6.00;91.50;;;;;;4975356;28;20204;-91
2023/02/12 09:42:53;;;;;;;19.23;12.73;;;7.60;86.90;;;;;;5477942;23;20292;-96
2023/02/12 10:01:38;;;;;;;3.70;2.50;;;8.60;81.20;;;;;;4943518;29;20248;-93
2023/02/12 10:04:06;;;;;;;5.47;2.03;;;8.80;78.90;;;;;;4952543;29;20272;-93
2023/02/12 10:06:37;;;;;;;2.65;2.40;;;8.80;78.90;;;;;;4930168;29;20189;-94
2023/02/12 10:20:53;;;;;;;5.50;2.90;;;8.80;77.20;;;;;;4944136;29;20600;-91
2023/02/12 10:33:07;;;;;;;2.25;1.90;;;9.80;67.50;;;;;;4823796;29;20220;-92
2023/02/12 10:41:53;;;;;;;4.40;3.60;;;10.90;55.90;;;;;;4913517;29;20722;-92
2023/02/12 10:44:19;;;;;;;4.28;3.20;;;11.10;51.60;;;;;;4932442;29;20194;-91
2023/02/12 10:46:46;;;;;;;4.65;3.50;;;11.60;46.40;;;;;;4911676;29;20574;-92
2023/02/12 10:49:16;;;;;;;4.18;3.42;;;11.80;44.10;;;;;;4914500;29;20207;-90
2023/02/12 10:52:00;;;;;;;4.53;3.90;;;12.20;39.80;;;;;;4930277;29;20213;-93
2023/02/12 10:57:27;;;;;;;7.72;5.15;;;12.00;37.40;;;;;;5194616;23;20214;-91
2023/02/12 10:59:57;;;;;;;8.48;5.97;;;11.40;43.00;;;;;;4941754;29;20208;-91
2023/02/12 11:43:36;;;;;;;2.95;2.40;;;10.10;56.70;;;;;;4905489;29;20187;-94
2023/02/12 11:53:05;;;;;;;4.72;3.28;;;9.60;67.20;;;;;;4956511;29;20238;-91
2023/02/12 12:05:10;;;;;;;2.20;1.92;;;9.30;69.30;;;;;;4896804;29;20214;-92
2023/02/12 12:07:42;;;;;;;3.55;1.90;;;9.20;72.70;;;;;;4913828;29;20218;-91
2023/02/12 12:10:42;;;;;;;4.22;2.20;;;9.40;70.70;;;;;;4928792;29;20214;-91
2023/02/12 12:19:59;;;;;;;3.88;2.20;;;9.20;74.10;;;;;;4852740;29;20244;-93
2023/02/12 12:25:51;;;;;;;3.60;2.30;;;9.70;69.60;;;;;;4890714;29;20685;-89
2023/02/12 12:28:34;;;;;;;4.30;2.15;;;9.60;68.60;;;;;;4942550;29;20205;-89
2023/02/12 12:31:10;;;;;;;4.13;1.75;;;9.60;70.00;;;;;;4952557;29;20202;-88
2023/02/12 12:37:26;;;;;;;2.20;2.00;;;9.70;66.70;;;;;;4943049;29;20220;-89
2023/02/12 12:40:45;;;;;;;5.18;2.95;;;9.50;68.00;;;;;;4936314;29;20236;-89
2023/02/12 12:43:25;;;;;;;3.50;2.38;;;9.70;66.70;;;;;;4947961;29;20208;-88
2023/02/12 12:46:15;;;;;;;5.53;2.67;;;9.80;65.90;;;;;;4952114;29;20292;-89
2023/02/12 12:49:30;;;;;;;4.95;3.08;;;9.60;67.40;;;;;;4955405;29;20204;-88
2023/02/12 12:52:42;;;;;;;4.53;2.85;;;9.70;65.30;;;;;;4951572;29;20284;-89
2023/02/12 13:08:36;;;;;;;3.13;2.45;;;9.20;69.80;;;;;;4932355;29;20193;-89
2023/02/12 13:14:17;;;;;;;5.93;4.88;;;9.90;67.50;;;;;;4922737;29;20206;-91
2023/02/12 13:39:23;;;;;;;5.57;4.20;;;9.10;74.00;;;;;;4806624;29;20246;-90
2023/02/12 13:49:23;;;;;;;5.32;4.05;;;9.00;75.40;;;;;;4926171;29;20237;-89
2023/02/12 13:51:57;;;;;;;6.88;4.25;;;9.00;74.30;;;;;;4937213;29;20285;-90
2023/02/12 13:54:41;;;;;;;7.22;5.38;;;8.90;75.40;;;;;;4927394;29;20206;-90
2023/02/12 14:07:53;;;;;;;13.02;8.30;;;8.70;84.60;;;;;;4934197;29;20245;-90
2023/02/12 14:10:26;;;;;;;11.82;7.95;;;8.60;86.70;;;;;;4939254;29;20269;-91
2023/02/12 14:12:56;;;;;;;10.25;7.22;;;8.60;86.60;;;;;;4938782;29;20288;-89
2023/02/12 14:18:33;;;;;;;10.95;7.72;;;8.50;87.40;;;;;;4917894;29;20245;-88
2023/02/12 14:21:40;;;;;;;11.80;7.57;;;8.60;87.00;;;;;;4915435;29;20622;-88
2023/02/12 14:24:56;;;;;;;12.48;7.75;;;8.60;87.00;;;;;;4918280;29;20225;-87
2023/02/12 14:27:35;;;;;;;11.27;7.88;;;8.50;87.80;;;;;;4937500;29;20245;-88
2023/02/12 14:30:27;;;;;;;10.43;7.28;;;8.50;87.90;;;;;;4935110;29;20637;-88
2023/02/12 14:33:16;;;;;;;13.25;7.88;;;8.60;86.80;;;;;;4922208;29;20202;-86
2023/02/12 14:35:44;;;;;;;10.30;7.53;;;8.50;87.50;;;;;;4929409;29;20205;-87
2023/02/12 14:39:10;;;;;;;9.60;6.63;;;8.50;86.30;;;;;;4940102;29;20678;-87
2023/02/12 14:41:40;;;;;;;10.98;6.95;;;8.40;86.80;;;;;;4934309;29;20301;-87
2023/02/12 14:44:46;;;;;;;9.10;6.85;;;8.40;88.00;;;;;;4941993;29;20246;-87
2023/02/12 14:47:44;;;;;;;10.75;7.13;;;8.40;87.90;;;;;;4927681;29;20214;-87
2023/02/12 14:50:18;;;;;;;12.25;8.30;;;8.40;88.60;;;;;;4933461;29;20202;-87
2023/02/12 14:52:50;;;;;;;13.88;8.63;;;8.30;90.20;;;;;;4931728;29;20194;-86
2023/02/12 14:55:28;;;;;;;13.25;8.80;;;8.10;90.30;;;;;;4922954;29;20277;-88
2023/02/12 14:57:59;;;;;;;13.15;8.43;;;8.10;90.30;;;;;;4949062;29;20216;-88
2023/02/12 15:00:36;;;;;;;11.35;7.07;;;8.20;90.30;;;;;;4933646;29;20210;-89
2023/02/12 15:03:32;;;;;;;9.88;6.75;;;8.10;89.60;;;;;;4939842;29;20193;-89
2023/02/12 15:06:07;;;;;;;10.27;6.20;;;8.10;89.00;;;;;;4935359;29;20735;-88
2023/02/12 15:08:43;;;;;;;8.07;5.78;;;8.00;88.40;;;;;;4940060;29;20543;-91
2023/02/12 15:14:26;;;;;;;8.90;6.10;;;8.00;88.30;;;;;;4935007;29;20221;-96
2023/02/12 15:25:35;;;;;;;11.30;7.28;;;7.80;88.50;;;;;;5073143;23;20225;-94
2023/02/12 15:28:16;;;;;;;10.30;7.50;;;7.70;89.30;;;;;;4991869;23;20230;-93
2023/02/12 15:30:44;;;;;;;10.10;7.25;;;7.70;90.20;;;;;;5148359;23;20237;-93
2023/02/12 15:33:22;;;;;;;10.70;7.55;;;7.60;90.20;;;;;;4937186;29;20210;-93
2023/02/12 15:35:49;;;;;;;10.40;6.82;;;7.60;90.20;;;;;;4945240;29;20239;-92
2023/02/12 15:38:25;;;;;;;10.90;7.18;;;7.50;90.10;;;;;;4945504;28;20218;-93
2023/02/12 15:40:57;;;;;;;13.10;7.47;;;7.50;90.10;;;;;;4929376;29;20210;-93
2023/02/12 15:43:30;;;;;;;9.48;7.20;;;7.50;90.10;;;;;;4923628;29;20186;-92
2023/02/12 15:45:57;;;;;;;10.55;7.32;;;7.40;90.10;;;;;;4944577;29;20201;-91
2023/02/12 15:48:30;;;;;;;11.23;7.45;;;7.40;90.00;;;;;;4947431;29;20198;-92
2023/02/12 15:51:05;;;;;;;11.40;7.65;;;7.30;90.10;;;;;;4942479;29;21487;-93
2023/02/12 15:53:32;;;;;;;11.85;7.95;;;7.30;90.10;;;;;;4938227;29;20237;-93
2023/02/12 15:56:01;;;;;;;11.93;8.35;;;7.20;90.10;;;;;;4909617;29;20302;-93
2023/02/12 15:58:32;;;;;;;12.63;8.27;;;7.20;90.10;;;;;;4923645;29;20221;-93
2023/02/12 16:01:05;;;;;;;12.38;8.73;;;7.10;90.10;;;;;;4933061;29;20205;-93
2023/02/12 16:03:36;;;;;;;11.37;7.57;;;7.00;90.60;;;;;;4936156;29;20299;-93
2023/02/12 16:06:09;;;;;;;11.13;7.65;;;6.90;90.50;;;;;;4940055;29;20255;-94
2023/02/12 16:11:18;;;;;;;16.65;10.35;;;6.80;91.10;;;;;;5288957;23;20234;-93
2023/02/12 16:16:24;;;;;;;13.27;8.67;;;6.70;91.20;;;;;;5206246;23;20224;-95
2023/02/12 16:19:22;;;;;;;13.98;9.20;;;6.70;91.40;;;;;;4950278;29;20597;-90
2023/02/12 16:21:53;;;;;;;13.57;9.45;;;6.60;91.60;;;;;;4935976;29;20213;-93
2023/02/12 16:24:28;;;;;;;16.83;10.43;;;6.50;91.60;;;;;;4929110;29;20214;-93
2023/02/12 16:26:56;;;;;;;14.43;9.73;;;6.50;92.20;;;;;;4924770;29;20216;-87
2023/02/12 16:29:24;;;;;;;16.40;10.48;;;6.50;92.30;;;;;;4927817;29;20198;-90
2023/02/12 16:31:57;;;;;;;14.80;10.37;;;6.40;92.70;;;;;;4932539;29;20205;-92
2023/02/12 16:37:22;;;;;;;16.93;10.33;;;6.20;93.30;;;;;;5027487;23;20226;-96
2023/02/12 16:40:17;;;;;;;19.90;10.90;;;6.20;93.70;;;;;;5101438;23;20227;-89
2023/02/12 16:42:56;;;;;;;17.27;10.87;;;6.10;93.80;;;;;;4948834;29;20778;-89
2023/02/12 16:45:42;;;;;;;17.67;11.10;;;6.10;94.10;;;;;;4947672;28;20203;-95
2023/02/12 16:48:16;;;;;;;18.10;10.60;;;6.00;94.30;;;;;;4943266;28;20632;-90
2023/02/12 16:50:49;;;;;;;17.83;11.27;;;5.90;94.60;;;;;;4946558;29;20230;-90
2023/02/12 16:53:45;;;;;;;18.00;10.60;;;5.90;94.80;;;;;;4950116;29;20212;-92
2023/02/12 16:56:17;;;;;;;17.03;11.13;;;5.80;95.20;;;;;;4945797;29;20198;-91
2023/02/12 16:58:45;;;;;;;17.17;11.07;;;5.70;95.20;;;;;;4928866;29;20234;-90
2023/02/12 17:01:18;;;;;;;17.47;10.57;;;5.70;95.20;;;;;;4926972;29;20248;-90
2023/02/12 17:03:46;;;;;;;17.03;11.00;;;5.60;95.20;;;;;;4927735;29;20194;-91
2023/02/12 17:06:13;;;;;;;17.20;10.37;;;5.50;95.40;;;;;;4937879;29;20205;-90
2023/02/12 17:08:42;;;;;;;16.97;10.90;;;5.50;95.70;;;;;;4911379;29;20651;-90
2023/02/12 17:11:09;;;;;;;17.57;10.77;;;5.60;95.50;;;;;;4924904;29;20198;-89
2023/02/12 17:13:36;;;;;;;18.77;11.90;;;5.50;95.60;;;;;;4936188;29;20202;-86
2023/02/12 17:16:03;;;;;;;17.73;11.37;;;5.50;95.80;;;;;;4928250;29;20203;-93
2023/02/12 17:18:31;;;;;;;20.03;11.67;;;5.40;96.00;;;;;;4915109;29;20416;-91